<?xml version="1.0" encoding="UTF-8" standalone="no" ?>
<gpx xmlns="http://www.topografix.com/GPX/1/1" xmlns:xsi="http://www.w3.org/2001/XMLSchema-instance" xsi:schemaLocation="http://www.topografix.com/GPX/1/1 http://www.topografix.com/GPX/1/1/gpx.xsd" version="1.1" creator="VisuGPX - https://www.visugpx.com">
  <metadata>
    <name>2173367-le point du jour</name>
    <desc><![CDATA[Circuit non balisé, à faire avec la carte en main où GPS de randonnée.]]></desc>
  </metadata>
  <trk>
    <name><![CDATA[2173367-le point du jour]]></name>
    <trkseg>
      <trkpt lat="45.97407" lon="3.70973">
        <ele>823</ele>
        <time>2022-05-27T14:33:58Z</time>
      </trkpt>
      <trkpt lat="45.9742" lon="3.70995">
        <ele>823</ele>
        <time>2022-05-27T14:34:25Z</time>
      </trkpt>
      <trkpt lat="45.97403" lon="3.71147">
        <ele>824</ele>
        <time>2022-05-27T14:36:48Z</time>
      </trkpt>
      <trkpt lat="45.97398" lon="3.71228">
        <ele>824</ele>
        <time>2022-05-27T14:38:03Z</time>
      </trkpt>
      <trkpt lat="45.97394" lon="3.71307">
        <ele>825</ele>
        <time>2022-05-27T14:39:16Z</time>
      </trkpt>
      <trkpt lat="45.97384" lon="3.71392">
        <ele>825</ele>
        <time>2022-05-27T14:40:36Z</time>
      </trkpt>
      <trkpt lat="45.97376" lon="3.71445">
        <ele>824</ele>
        <time>2022-05-27T14:41:27Z</time>
      </trkpt>
      <trkpt lat="45.97382" lon="3.71539">
        <ele>824</ele>
        <time>2022-05-27T14:42:54Z</time>
      </trkpt>
      <trkpt lat="45.97406" lon="3.71613">
        <ele>827</ele>
        <time>2022-05-27T14:44:10Z</time>
      </trkpt>
      <trkpt lat="45.97401" lon="3.71646">
        <ele>823</ele>
        <time>2022-05-27T14:44:41Z</time>
      </trkpt>
      <trkpt lat="45.97361" lon="3.71687">
        <ele>817</ele>
        <time>2022-05-27T14:45:47Z</time>
      </trkpt>
      <trkpt lat="45.9737" lon="3.71771">
        <ele>820</ele>
        <time>2022-05-27T14:47:06Z</time>
      </trkpt>
      <trkpt lat="45.97381" lon="3.71869">
        <ele>824</ele>
        <time>2022-05-27T14:48:38Z</time>
      </trkpt>
      <trkpt lat="45.97403" lon="3.72008">
        <ele>832</ele>
        <time>2022-05-27T14:50:50Z</time>
      </trkpt>
      <trkpt lat="45.97438" lon="3.72118">
        <ele>840</ele>
        <time>2022-05-27T14:52:42Z</time>
      </trkpt>
      <trkpt lat="45.97465" lon="3.72212">
        <ele>845</ele>
        <time>2022-05-27T14:54:16Z</time>
      </trkpt>
      <trkpt lat="45.97487" lon="3.72257">
        <ele>849</ele>
        <time>2022-05-27T14:55:08Z</time>
      </trkpt>
      <trkpt lat="45.97509" lon="3.72259">
        <ele>854</ele>
        <time>2022-05-27T14:55:37Z</time>
      </trkpt>
      <trkpt lat="45.97512" lon="3.72281">
        <ele>854</ele>
        <time>2022-05-27T14:55:58Z</time>
      </trkpt>
      <trkpt lat="45.97539" lon="3.72296">
        <ele>859</ele>
        <time>2022-05-27T14:56:36Z</time>
      </trkpt>
      <trkpt lat="45.9751" lon="3.72342">
        <ele>853</ele>
        <time>2022-05-27T14:57:34Z</time>
      </trkpt>
      <trkpt lat="45.97503" lon="3.72378">
        <ele>852</ele>
        <time>2022-05-27T14:58:09Z</time>
      </trkpt>
      <trkpt lat="45.97495" lon="3.72433">
        <ele>849</ele>
        <time>2022-05-27T14:59:01Z</time>
      </trkpt>
      <trkpt lat="45.97528" lon="3.72533">
        <ele>848</ele>
        <time>2022-05-27T15:00:43Z</time>
      </trkpt>
      <trkpt lat="45.97513" lon="3.72587">
        <ele>842</ele>
        <time>2022-05-27T15:01:37Z</time>
      </trkpt>
      <trkpt lat="45.97471" lon="3.72643">
        <ele>833</ele>
        <time>2022-05-27T15:02:54Z</time>
      </trkpt>
      <trkpt lat="45.9742" lon="3.72637">
        <ele>826</ele>
        <time>2022-05-27T15:04:02Z</time>
      </trkpt>
      <trkpt lat="45.97376" lon="3.72631">
        <ele>824</ele>
        <time>2022-05-27T15:05:01Z</time>
      </trkpt>
      <trkpt lat="45.97358" lon="3.72621">
        <ele>823</ele>
        <time>2022-05-27T15:05:27Z</time>
      </trkpt>
      <trkpt lat="45.97325" lon="3.72604">
        <ele>822</ele>
        <time>2022-05-27T15:06:14Z</time>
      </trkpt>
      <trkpt lat="45.9729" lon="3.72621">
        <ele>821</ele>
        <time>2022-05-27T15:07:03Z</time>
      </trkpt>
      <trkpt lat="45.9726" lon="3.72637">
        <ele>820</ele>
        <time>2022-05-27T15:07:46Z</time>
      </trkpt>
      <trkpt lat="45.97249" lon="3.72674">
        <ele>819</ele>
        <time>2022-05-27T15:08:23Z</time>
      </trkpt>
      <trkpt lat="45.97251" lon="3.72651">
        <ele>820</ele>
        <time>2022-05-27T15:08:44Z</time>
      </trkpt>
      <trkpt lat="45.9726" lon="3.72578">
        <ele>819</ele>
        <time>2022-05-27T15:09:53Z</time>
      </trkpt>
      <trkpt lat="45.9723" lon="3.72578">
        <ele>817</ele>
        <time>2022-05-27T15:10:33Z</time>
      </trkpt>
      <trkpt lat="45.97182" lon="3.72553">
        <ele>811</ele>
        <time>2022-05-27T15:11:41Z</time>
      </trkpt>
      <trkpt lat="45.97137" lon="3.72536">
        <ele>805</ele>
        <time>2022-05-27T15:12:43Z</time>
      </trkpt>
      <trkpt lat="45.97105" lon="3.72499">
        <ele>799</ele>
        <time>2022-05-27T15:13:38Z</time>
      </trkpt>
      <trkpt lat="45.97092" lon="3.72494">
        <ele>797</ele>
        <time>2022-05-27T15:13:56Z</time>
      </trkpt>
      <trkpt lat="45.9703" lon="3.72566">
        <ele>792</ele>
        <time>2022-05-27T15:15:42Z</time>
      </trkpt>
      <trkpt lat="45.97009" lon="3.72615">
        <ele>787</ele>
        <time>2022-05-27T15:16:36Z</time>
      </trkpt>
      <trkpt lat="45.96989" lon="3.72642">
        <ele>783</ele>
        <time>2022-05-27T15:17:12Z</time>
      </trkpt>
      <trkpt lat="45.96979" lon="3.7269">
        <ele>780</ele>
        <time>2022-05-27T15:17:59Z</time>
      </trkpt>
      <trkpt lat="45.96976" lon="3.72782">
        <ele>776</ele>
        <time>2022-05-27T15:19:24Z</time>
      </trkpt>
      <trkpt lat="45.96981" lon="3.72816">
        <ele>774</ele>
        <time>2022-05-27T15:19:57Z</time>
      </trkpt>
      <trkpt lat="45.97009" lon="3.72894">
        <ele>772</ele>
        <time>2022-05-27T15:21:18Z</time>
      </trkpt>
      <trkpt lat="45.97008" lon="3.72939">
        <ele>770</ele>
        <time>2022-05-27T15:22:00Z</time>
      </trkpt>
      <trkpt lat="45.97002" lon="3.73033">
        <ele>769</ele>
        <time>2022-05-27T15:23:27Z</time>
      </trkpt>
      <trkpt lat="45.96967" lon="3.73128">
        <ele>769</ele>
        <time>2022-05-27T15:25:07Z</time>
      </trkpt>
      <trkpt lat="45.96908" lon="3.73175">
        <ele>763</ele>
        <time>2022-05-27T15:26:37Z</time>
      </trkpt>
      <trkpt lat="45.96872" lon="3.73257">
        <ele>763</ele>
        <time>2022-05-27T15:28:07Z</time>
      </trkpt>
      <trkpt lat="45.96851" lon="3.73295">
        <ele>764</ele>
        <time>2022-05-27T15:28:52Z</time>
      </trkpt>
      <trkpt lat="45.9683" lon="3.73334">
        <ele>765</ele>
        <time>2022-05-27T15:29:38Z</time>
      </trkpt>
      <trkpt lat="45.96803" lon="3.7342">
        <ele>770</ele>
        <time>2022-05-27T15:31:05Z</time>
      </trkpt>
      <trkpt lat="45.96784" lon="3.73467">
        <ele>772</ele>
        <time>2022-05-27T15:31:56Z</time>
      </trkpt>
      <trkpt lat="45.96729" lon="3.73527">
        <ele>766</ele>
        <time>2022-05-27T15:33:28Z</time>
      </trkpt>
      <trkpt lat="45.96699" lon="3.73566">
        <ele>763</ele>
        <time>2022-05-27T15:34:22Z</time>
      </trkpt>
      <trkpt lat="45.96717" lon="3.73643">
        <ele>769</ele>
        <time>2022-05-27T15:35:37Z</time>
      </trkpt>
      <trkpt lat="45.96713" lon="3.73699">
        <ele>770</ele>
        <time>2022-05-27T15:36:29Z</time>
      </trkpt>
      <trkpt lat="45.96708" lon="3.73789">
        <ele>773</ele>
        <time>2022-05-27T15:37:53Z</time>
      </trkpt>
      <trkpt lat="45.96708" lon="3.73844">
        <ele>778</ele>
        <time>2022-05-27T15:38:44Z</time>
      </trkpt>
      <trkpt lat="45.96708" lon="3.7389">
        <ele>781</ele>
        <time>2022-05-27T15:39:27Z</time>
      </trkpt>
      <trkpt lat="45.96685" lon="3.73941">
        <ele>777</ele>
        <time>2022-05-27T15:40:23Z</time>
      </trkpt>
      <trkpt lat="45.96688" lon="3.74017">
        <ele>781</ele>
        <time>2022-05-27T15:41:34Z</time>
      </trkpt>
      <trkpt lat="45.96702" lon="3.74071">
        <ele>785</ele>
        <time>2022-05-27T15:42:27Z</time>
      </trkpt>
      <trkpt lat="45.9672" lon="3.74162">
        <ele>785</ele>
        <time>2022-05-27T15:43:55Z</time>
      </trkpt>
      <trkpt lat="45.96752" lon="3.74215">
        <ele>783</ele>
        <time>2022-05-27T15:45:00Z</time>
      </trkpt>
      <trkpt lat="45.96809" lon="3.74239">
        <ele>786</ele>
        <time>2022-05-27T15:46:19Z</time>
      </trkpt>
      <trkpt lat="45.96871" lon="3.7424">
        <ele>794</ele>
        <time>2022-05-27T15:47:42Z</time>
      </trkpt>
      <trkpt lat="45.96924" lon="3.74321">
        <ele>784</ele>
        <time>2022-05-27T15:49:25Z</time>
      </trkpt>
      <trkpt lat="45.9697" lon="3.74402">
        <ele>785</ele>
        <time>2022-05-27T15:51:02Z</time>
      </trkpt>
      <trkpt lat="45.97012" lon="3.74405">
        <ele>793</ele>
        <time>2022-05-27T15:51:58Z</time>
      </trkpt>
      <trkpt lat="45.97046" lon="3.74382">
        <ele>799</ele>
        <time>2022-05-27T15:52:49Z</time>
      </trkpt>
      <trkpt lat="45.97063" lon="3.74325">
        <ele>808</ele>
        <time>2022-05-27T15:53:46Z</time>
      </trkpt>
      <trkpt lat="45.97113" lon="3.74282">
        <ele>814</ele>
        <time>2022-05-27T15:55:04Z</time>
      </trkpt>
      <trkpt lat="45.9714" lon="3.74208">
        <ele>819</ele>
        <time>2022-05-27T15:56:21Z</time>
      </trkpt>
      <trkpt lat="45.97145" lon="3.74106">
        <ele>823</ele>
        <time>2022-05-27T15:57:56Z</time>
      </trkpt>
      <trkpt lat="45.97148" lon="3.74057">
        <ele>826</ele>
        <time>2022-05-27T15:58:42Z</time>
      </trkpt>
      <trkpt lat="45.97163" lon="3.73986">
        <ele>827</ele>
        <time>2022-05-27T15:59:51Z</time>
      </trkpt>
      <trkpt lat="45.97171" lon="3.73946">
        <ele>827</ele>
        <time>2022-05-27T16:00:29Z</time>
      </trkpt>
      <trkpt lat="45.97195" lon="3.73868">
        <ele>832</ele>
        <time>2022-05-27T16:01:48Z</time>
      </trkpt>
      <trkpt lat="45.97231" lon="3.73805">
        <ele>838</ele>
        <time>2022-05-27T16:03:04Z</time>
      </trkpt>
      <trkpt lat="45.97155" lon="3.7378">
        <ele>846</ele>
        <time>2022-05-27T16:04:48Z</time>
      </trkpt>
      <trkpt lat="45.97127" lon="3.73745">
        <ele>847</ele>
        <time>2022-05-27T16:05:37Z</time>
      </trkpt>
      <trkpt lat="45.97088" lon="3.73682">
        <ele>842</ele>
        <time>2022-05-27T16:06:56Z</time>
      </trkpt>
      <trkpt lat="45.97142" lon="3.73642">
        <ele>847</ele>
        <time>2022-05-27T16:08:17Z</time>
      </trkpt>
      <trkpt lat="45.97203" lon="3.73605">
        <ele>852</ele>
        <time>2022-05-27T16:09:45Z</time>
      </trkpt>
      <trkpt lat="45.97234" lon="3.73569">
        <ele>855</ele>
        <time>2022-05-27T16:10:38Z</time>
      </trkpt>
      <trkpt lat="45.97272" lon="3.73497">
        <ele>860</ele>
        <time>2022-05-27T16:12:02Z</time>
      </trkpt>
      <trkpt lat="45.9733" lon="3.73398">
        <ele>869</ele>
        <time>2022-05-27T16:14:02Z</time>
      </trkpt>
      <trkpt lat="45.97379" lon="3.73319">
        <ele>865</ele>
        <time>2022-05-27T16:15:40Z</time>
      </trkpt>
      <trkpt lat="45.97415" lon="3.73278">
        <ele>863</ele>
        <time>2022-05-27T16:16:42Z</time>
      </trkpt>
      <trkpt lat="45.97565" lon="3.73163">
        <ele>856</ele>
        <time>2022-05-27T16:20:29Z</time>
      </trkpt>
      <trkpt lat="45.97572" lon="3.73131">
        <ele>856</ele>
        <time>2022-05-27T16:21:00Z</time>
      </trkpt>
      <trkpt lat="45.97636" lon="3.73099">
        <ele>864</ele>
        <time>2022-05-27T16:22:30Z</time>
      </trkpt>
      <trkpt lat="45.97627" lon="3.73047">
        <ele>866</ele>
        <time>2022-05-27T16:23:20Z</time>
      </trkpt>
      <trkpt lat="45.97635" lon="3.73008">
        <ele>870</ele>
        <time>2022-05-27T16:23:57Z</time>
      </trkpt>
      <trkpt lat="45.97674" lon="3.73068">
        <ele>873</ele>
        <time>2022-05-27T16:25:14Z</time>
      </trkpt>
      <trkpt lat="45.97725" lon="3.73086">
        <ele>882</ele>
        <time>2022-05-27T16:26:24Z</time>
      </trkpt>
      <trkpt lat="45.97851" lon="3.73101">
        <ele>889</ele>
        <time>2022-05-27T16:29:12Z</time>
      </trkpt>
      <trkpt lat="45.97945" lon="3.73113">
        <ele>892</ele>
        <time>2022-05-27T16:31:18Z</time>
      </trkpt>
      <trkpt lat="45.98068" lon="3.73144">
        <ele>898</ele>
        <time>2022-05-27T16:34:05Z</time>
      </trkpt>
      <trkpt lat="45.98087" lon="3.73128">
        <ele>899</ele>
        <time>2022-05-27T16:34:34Z</time>
      </trkpt>
      <trkpt lat="45.98134" lon="3.7311">
        <ele>896</ele>
        <time>2022-05-27T16:35:39Z</time>
      </trkpt>
      <trkpt lat="45.98154" lon="3.73085">
        <ele>896</ele>
        <time>2022-05-27T16:36:15Z</time>
      </trkpt>
      <trkpt lat="45.98181" lon="3.73053">
        <ele>895</ele>
        <time>2022-05-27T16:37:01Z</time>
      </trkpt>
      <trkpt lat="45.98202" lon="3.73016">
        <ele>894</ele>
        <time>2022-05-27T16:37:46Z</time>
      </trkpt>
      <trkpt lat="45.98294" lon="3.73017">
        <ele>881</ele>
        <time>2022-05-27T16:39:48Z</time>
      </trkpt>
      <trkpt lat="45.9832" lon="3.73082">
        <ele>879</ele>
        <time>2022-05-27T16:40:58Z</time>
      </trkpt>
      <trkpt lat="45.98329" lon="3.73052">
        <ele>878</ele>
        <time>2022-05-27T16:41:28Z</time>
      </trkpt>
      <trkpt lat="45.98356" lon="3.72991">
        <ele>872</ele>
        <time>2022-05-27T16:42:35Z</time>
      </trkpt>
      <trkpt lat="45.98368" lon="3.7295">
        <ele>870</ele>
        <time>2022-05-27T16:43:17Z</time>
      </trkpt>
      <trkpt lat="45.98395" lon="3.72888">
        <ele>868</ele>
        <time>2022-05-27T16:44:24Z</time>
      </trkpt>
      <trkpt lat="45.98419" lon="3.72843">
        <ele>865</ele>
        <time>2022-05-27T16:45:17Z</time>
      </trkpt>
      <trkpt lat="45.98427" lon="3.73099">
        <ele>861</ele>
        <time>2022-05-27T16:49:15Z</time>
      </trkpt>
      <trkpt lat="45.98453" lon="3.73005">
        <ele>862</ele>
        <time>2022-05-27T16:50:48Z</time>
      </trkpt>
      <trkpt lat="45.98476" lon="3.73">
        <ele>862</ele>
        <time>2022-05-27T16:51:19Z</time>
      </trkpt>
      <trkpt lat="45.98506" lon="3.73144">
        <ele>854</ele>
        <time>2022-05-27T16:53:39Z</time>
      </trkpt>
      <trkpt lat="45.98597" lon="3.73249">
        <ele>859</ele>
        <time>2022-05-27T16:56:15Z</time>
      </trkpt>
      <trkpt lat="45.98702" lon="3.73258">
        <ele>865</ele>
        <time>2022-05-27T16:58:35Z</time>
      </trkpt>
      <trkpt lat="45.98789" lon="3.73191">
        <ele>860</ele>
        <time>2022-05-27T17:00:47Z</time>
      </trkpt>
      <trkpt lat="45.98851" lon="3.72997">
        <ele>856</ele>
        <time>2022-05-27T17:04:05Z</time>
      </trkpt>
      <trkpt lat="45.98857" lon="3.72949">
        <ele>854</ele>
        <time>2022-05-27T17:04:50Z</time>
      </trkpt>
      <trkpt lat="45.98795" lon="3.72853">
        <ele>869</ele>
        <time>2022-05-27T17:06:51Z</time>
      </trkpt>
      <trkpt lat="45.98722" lon="3.72625">
        <ele>886</ele>
        <time>2022-05-27T17:10:44Z</time>
      </trkpt>
      <trkpt lat="45.98758" lon="3.72521">
        <ele>896</ele>
        <time>2022-05-27T17:12:32Z</time>
      </trkpt>
      <trkpt lat="45.98814" lon="3.72421">
        <ele>906</ele>
        <time>2022-05-27T17:14:31Z</time>
      </trkpt>
      <trkpt lat="45.9881" lon="3.72383">
        <ele>910</ele>
        <time>2022-05-27T17:15:07Z</time>
      </trkpt>
      <trkpt lat="45.98729" lon="3.72343">
        <ele>905</ele>
        <time>2022-05-27T17:17:01Z</time>
      </trkpt>
      <trkpt lat="45.98702" lon="3.7228">
        <ele>906</ele>
        <time>2022-05-27T17:18:09Z</time>
      </trkpt>
      <trkpt lat="45.98652" lon="3.7223">
        <ele>897</ele>
        <time>2022-05-27T17:19:31Z</time>
      </trkpt>
      <trkpt lat="45.98653" lon="3.72222">
        <ele>897</ele>
        <time>2022-05-27T17:19:38Z</time>
      </trkpt>
      <trkpt lat="45.98641" lon="3.72202">
        <ele>896</ele>
        <time>2022-05-27T17:20:03Z</time>
      </trkpt>
      <trkpt lat="45.98632" lon="3.72179">
        <ele>895</ele>
        <time>2022-05-27T17:20:27Z</time>
      </trkpt>
      <trkpt lat="45.98632" lon="3.72098">
        <ele>896</ele>
        <time>2022-05-27T17:21:42Z</time>
      </trkpt>
      <trkpt lat="45.98623" lon="3.72027">
        <ele>896</ele>
        <time>2022-05-27T17:22:49Z</time>
      </trkpt>
      <trkpt lat="45.98611" lon="3.71946">
        <ele>895</ele>
        <time>2022-05-27T17:24:06Z</time>
      </trkpt>
      <trkpt lat="45.98608" lon="3.7187">
        <ele>898</ele>
        <time>2022-05-27T17:25:17Z</time>
      </trkpt>
      <trkpt lat="45.98605" lon="3.71797">
        <ele>898</ele>
        <time>2022-05-27T17:26:24Z</time>
      </trkpt>
      <trkpt lat="45.98568" lon="3.71752">
        <ele>893</ele>
        <time>2022-05-27T17:27:29Z</time>
      </trkpt>
      <trkpt lat="45.9853" lon="3.7173">
        <ele>890</ele>
        <time>2022-05-27T17:28:24Z</time>
      </trkpt>
      <trkpt lat="45.98516" lon="3.71687">
        <ele>890</ele>
        <time>2022-05-27T17:29:08Z</time>
      </trkpt>
      <trkpt lat="45.98482" lon="3.71676">
        <ele>889</ele>
        <time>2022-05-27T17:29:54Z</time>
      </trkpt>
      <trkpt lat="45.9845" lon="3.71572">
        <ele>884</ele>
        <time>2022-05-27T17:31:40Z</time>
      </trkpt>
      <trkpt lat="45.98451" lon="3.71546">
        <ele>882</ele>
        <time>2022-05-27T17:32:04Z</time>
      </trkpt>
      <trkpt lat="45.98421" lon="3.71488">
        <ele>878</ele>
        <time>2022-05-27T17:33:11Z</time>
      </trkpt>
      <trkpt lat="45.98366" lon="3.71437">
        <ele>874</ele>
        <time>2022-05-27T17:34:38Z</time>
      </trkpt>
      <trkpt lat="45.98292" lon="3.71458">
        <ele>867</ele>
        <time>2022-05-27T17:36:19Z</time>
      </trkpt>
      <trkpt lat="45.9826" lon="3.71461">
        <ele>862</ele>
        <time>2022-05-27T17:37:02Z</time>
      </trkpt>
      <trkpt lat="45.98235" lon="3.71448">
        <ele>861</ele>
        <time>2022-05-27T17:37:37Z</time>
      </trkpt>
      <trkpt lat="45.98214" lon="3.71413">
        <ele>860</ele>
        <time>2022-05-27T17:38:20Z</time>
      </trkpt>
      <trkpt lat="45.98217" lon="3.71377">
        <ele>858</ele>
        <time>2022-05-27T17:38:54Z</time>
      </trkpt>
      <trkpt lat="45.98238" lon="3.71278">
        <ele>853</ele>
        <time>2022-05-27T17:40:30Z</time>
      </trkpt>
      <trkpt lat="45.98259" lon="3.71215">
        <ele>846</ele>
        <time>2022-05-27T17:41:34Z</time>
      </trkpt>
      <trkpt lat="45.98262" lon="3.71154">
        <ele>838</ele>
        <time>2022-05-27T17:42:31Z</time>
      </trkpt>
      <trkpt lat="45.98226" lon="3.71145">
        <ele>836</ele>
        <time>2022-05-27T17:43:20Z</time>
      </trkpt>
      <trkpt lat="45.98181" lon="3.71141">
        <ele>835</ele>
        <time>2022-05-27T17:44:20Z</time>
      </trkpt>
      <trkpt lat="45.98134" lon="3.71119">
        <ele>828</ele>
        <time>2022-05-27T17:45:26Z</time>
      </trkpt>
      <trkpt lat="45.98098" lon="3.71098">
        <ele>820</ele>
        <time>2022-05-27T17:46:18Z</time>
      </trkpt>
      <trkpt lat="45.98063" lon="3.71142">
        <ele>824</ele>
        <time>2022-05-27T17:47:20Z</time>
      </trkpt>
      <trkpt lat="45.98014" lon="3.7118">
        <ele>823</ele>
        <time>2022-05-27T17:48:34Z</time>
      </trkpt>
      <trkpt lat="45.97964" lon="3.71154">
        <ele>824</ele>
        <time>2022-05-27T17:49:45Z</time>
      </trkpt>
      <trkpt lat="45.97951" lon="3.71091">
        <ele>821</ele>
        <time>2022-05-27T17:50:46Z</time>
      </trkpt>
      <trkpt lat="45.97937" lon="3.71085">
        <ele>823</ele>
        <time>2022-05-27T17:51:05Z</time>
      </trkpt>
      <trkpt lat="45.97895" lon="3.71094">
        <ele>828</ele>
        <time>2022-05-27T17:52:02Z</time>
      </trkpt>
      <trkpt lat="45.97847" lon="3.71111">
        <ele>835</ele>
        <time>2022-05-27T17:53:08Z</time>
      </trkpt>
      <trkpt lat="45.97787" lon="3.71091">
        <ele>834</ele>
        <time>2022-05-27T17:54:30Z</time>
      </trkpt>
      <trkpt lat="45.9774" lon="3.71106">
        <ele>835</ele>
        <time>2022-05-27T17:55:35Z</time>
      </trkpt>
      <trkpt lat="45.97683" lon="3.71115">
        <ele>834</ele>
        <time>2022-05-27T17:56:51Z</time>
      </trkpt>
      <trkpt lat="45.97605" lon="3.71115">
        <ele>832</ele>
        <time>2022-05-27T17:58:35Z</time>
      </trkpt>
      <trkpt lat="45.97567" lon="3.71072">
        <ele>827</ele>
        <time>2022-05-27T17:59:40Z</time>
      </trkpt>
      <trkpt lat="45.9744" lon="3.70992">
        <ele>823</ele>
        <time>2022-05-27T18:02:45Z</time>
      </trkpt>
      <trkpt lat="45.97433" lon="3.70972">
        <ele>823</ele>
        <time>2022-05-27T18:03:05Z</time>
      </trkpt>
    </trkseg>
  </trk>
</gpx>